Time;durP1;ratioP1;P1;durP2;ratioP2;P2;SDS_P1;SDS_P2;PMS_P1;PMS_P2;Temp;Humidity;BMP_temperature;BMP_pressure;BME280_temperature;BME280_humidity;BME280_pressure;Samples;Min_cycle;Max_cycle;Signal;HPM_P1;HPM_P2
2021/12/21 00:00:38;;;;;;;78.32;32.40;;;-3.10;99.90;;;;;;5048896;28;20018;-76
2021/12/21 00:03:03;;;;;;;38.28;17.15;;;-3.10;99.90;;;;;;5048616;27;20593;-77
2021/12/21 00:05:30;;;;;;;98.85;42.28;;;-3.10;99.90;;;;;;5048400;27;20056;-77
2021/12/21 00:07:59;;;;;;;93.28;40.25;;;-3.10;99.90;;;;;;5048712;27;20390;-77
2021/12/21 00:10:28;;;;;;;145.27;61.83;;;-3.10;99.90;;;;;;5048342;28;20021;-77
2021/12/21 00:15:47;;;;;;;68.70;27.70;;;-3.10;99.90;;;;;;5049646;27;20033;-77
2021/12/21 00:18:24;;;;;;;70.20;30.80;;;-3.00;99.90;;;;;;5049512;27;20435;-76
2021/12/21 00:21:03;;;;;;;74.72;31.95;;;-3.00;99.90;;;;;;5049628;28;20025;-77
2021/12/21 00:25:59;;;;;;;66.18;26.55;;;-3.00;99.90;;;;;;5045041;28;20112;-76
2021/12/21 00:28:25;;;;;;;105.38;42.00;;;-3.00;99.90;;;;;;5048051;28;20021;-77
2021/12/21 00:30:52;;;;;;;64.40;30.30;;;-3.10;99.90;;;;;;5028850;28;20036;-76
2021/12/21 00:33:18;;;;;;;62.28;29.13;;;-3.10;99.90;;;;;;5028252;28;20082;-77
2021/12/21 00:35:44;;;;;;;54.30;21.42;;;-3.20;99.90;;;;;;5029205;28;20030;-77
2021/12/21 00:38:10;;;;;;;91.88;37.70;;;-3.20;99.90;;;;;;5029389;28;20474;-77
2021/12/21 00:40:35;;;;;;;215.85;76.22;;;-3.20;99.90;;;;;;5043103;28;20057;-77
2021/12/21 00:43:01;;;;;;;89.45;34.05;;;-3.30;99.90;;;;;;5047971;28;20033;-77
2021/12/21 00:45:27;;;;;;;110.70;45.63;;;-3.30;99.90;;;;;;5048113;27;20115;-76
2021/12/21 00:47:52;;;;;;;175.13;66.53;;;-3.40;99.90;;;;;;5049400;28;20021;-77
2021/12/21 00:50:20;;;;;;;195.30;67.22;;;-3.30;99.90;;;;;;5047944;28;20060;-76
2021/12/21 00:52:49;;;;;;;257.50;88.82;;;-3.40;99.90;;;;;;5051543;28;20039;-76
2021/12/21 00:55:16;;;;;;;200.93;69.55;;;-3.40;99.90;;;;;;5052810;28;20088;-76
2021/12/21 00:57:41;;;;;;;264.42;87.82;;;-3.30;99.90;;;;;;5052685;28;20100;-76
2021/12/21 01:00:11;;;;;;;125.88;45.40;;;-3.30;99.90;;;;;;5052675;28;20104;-76
2021/12/21 01:02:37;;;;;;;274.05;88.07;;;-3.30;99.90;;;;;;5033921;28;20025;-76
2021/12/21 01:05:06;;;;;;;182.73;59.17;;;-3.40;99.90;;;;;;5032782;28;20010;-77
2021/12/21 01:07:39;;;;;;;83.18;29.65;;;-3.40;99.90;;;;;;5031039;28;20022;-77
2021/12/21 01:10:36;;;;;;;329.17;110.63;;;-3.30;99.90;;;;;;5032656;28;20090;-77
2021/12/21 01:12:56;;;;;;;195.25;71.97;;;-3.30;99.90;;;;;;5032664;28;20017;-77
2021/12/21 01:15:53;;;;;;;154.40;50.65;;;-3.30;99.90;;;;;;5032017;28;20029;-77
2021/12/21 01:18:24;;;;;;;136.93;49.95;;;-3.30;99.90;;;;;;5032185;28;20028;-76
2021/12/21 01:21:03;;;;;;;316.23;107.53;;;-3.30;99.90;;;;;;5032320;28;20528;-76
2021/12/21 01:26:21;;;;;;;186.27;65.85;;;-3.30;99.90;;;;;;5032249;28;20386;-76
2021/12/21 01:28:56;;;;;;;210.93;73.15;;;-3.30;99.90;;;;;;5031362;28;20068;-76
2021/12/21 01:31:35;;;;;;;94.80;33.25;;;-3.30;99.90;;;;;;5031305;28;20029;-76
2021/12/21 01:41:39;;;;;;;204.15;73.88;;;-3.20;99.90;;;;;;5032084;28;20026;-76
2021/12/21 01:49:39;;;;;;;96.75;35.60;;;-3.20;99.90;;;;;;5031906;28;20040;-76
2021/12/21 01:52:11;;;;;;;136.02;49.42;;;-3.20;99.90;;;;;;5030742;28;20030;-76
2021/12/21 01:54:37;;;;;;;;;;;-3.20;99.90;;;;;;5031237;28;20108;-77
2021/12/21 01:57:04;;;;;;;60.40;24.10;;;-3.20;99.90;;;;;;5031935;28;19940;-76
2021/12/21 01:59:30;;;;;;;43.30;18.35;;;-3.20;99.90;;;;;;5030519;28;20066;-76
2021/12/21 02:01:56;;;;;;;24.65;11.70;;;-3.20;99.90;;;;;;5031616;28;20030;-76
2021/12/21 02:04:22;;;;;;;29.45;12.90;;;-3.20;99.90;;;;;;5054200;27;20068;-76
2021/12/21 02:06:49;;;;;;;110.47;41.42;;;-3.30;99.90;;;;;;5105467;27;20031;-76
2021/12/21 02:09:16;;;;;;;45.75;16.88;;;-3.20;99.90;;;;;;5049660;28;20025;-76
2021/12/21 02:11:42;;;;;;;43.38;17.83;;;-3.30;99.90;;;;;;5053063;27;20081;-77
2021/12/21 02:14:09;;;;;;;33.25;14.45;;;-3.30;99.90;;;;;;5052583;27;20025;-76
2021/12/21 02:16:54;;;;;;;61.72;22.63;;;-3.30;99.90;;;;;;5045851;28;20024;-77
2021/12/21 02:19:31;;;;;;;75.85;30.42;;;-3.30;99.90;;;;;;5050050;28;20032;-76
2021/12/21 02:22:07;;;;;;;44.35;17.95;;;-3.20;99.90;;;;;;5051387;28;20374;-77
2021/12/21 02:24:42;;;;;;;46.83;19.30;;;-3.30;99.90;;;;;;5049685;28;20494;-76
2021/12/21 02:27:29;;;;;;;27.00;13.40;;;-3.20;99.90;;;;;;5051524;28;20112;-76
2021/12/21 02:29:55;;;;;;;30.88;14.40;;;-3.20;99.90;;;;;;5051289;28;20569;-76
2021/12/21 02:32:22;;;;;;;22.25;11.32;;;-3.20;99.90;;;;;;5049976;28;20017;-76
2021/12/21 02:34:49;;;;;;;22.13;9.93;;;-3.20;99.90;;;;;;5050051;28;20173;-76
2021/12/21 02:37:15;;;;;;;72.57;29.27;;;-3.20;99.90;;;;;;5051198;28;20022;-77
2021/12/21 02:39:40;;;;;;;20.27;10.25;;;-3.10;99.90;;;;;;5049777;28;20032;-77
2021/12/21 02:42:07;;;;;;;33.35;14.25;;;-3.20;99.90;;;;;;5049830;28;20053;-77
2021/12/21 02:44:33;;;;;;;38.65;17.50;;;-3.20;99.90;;;;;;5051071;28;20037;-77
2021/12/21 02:46:59;;;;;;;42.05;16.50;;;-3.20;99.90;;;;;;5051115;28;20360;-77
2021/12/21 02:49:25;;;;;;;44.83;18.42;;;-3.20;99.90;;;;;;5049634;28;20112;-77
2021/12/21 02:51:51;;;;;;;40.00;15.65;;;-3.20;99.90;;;;;;5050663;28;20071;-77
2021/12/21 02:54:19;;;;;;;45.28;20.27;;;-3.20;99.90;;;;;;5050981;28;20103;-77
2021/12/21 02:56:45;;;;;;;43.78;22.40;;;-3.20;99.90;;;;;;5050828;28;20036;-77
2021/12/21 02:59:12;;;;;;;48.20;21.33;;;-3.30;99.90;;;;;;5050552;28;20031;-77
2021/12/21 03:01:38;;;;;;;43.42;19.58;;;-3.30;99.90;;;;;;5050605;28;20028;-77
2021/12/21 03:04:04;;;;;;;67.15;31.75;;;-3.30;99.90;;;;;;5050598;28;20040;-77
2021/12/21 03:11:56;;;;;;;35.72;17.30;;;-3.20;99.90;;;;;;5051094;28;20033;-76
2021/12/21 03:14:25;;;;;;;18.25;9.73;;;-3.30;99.90;;;;;;5050080;28;20066;-76
2021/12/21 03:16:53;;;;;;;22.30;12.02;;;-3.30;99.90;;;;;;5049334;28;20021;-76
2021/12/21 03:19:19;;;;;;;25.98;14.60;;;-3.20;99.90;;;;;;5050396;28;20026;-77
2021/12/21 03:21:44;;;;;;;13.95;7.88;;;-3.30;99.90;;;;;;5050083;28;20375;-76
2021/12/21 03:24:10;;;;;;;22.92;12.52;;;-3.30;99.90;;;;;;5049150;28;20041;-76
2021/12/21 03:26:37;;;;;;;29.13;16.35;;;-3.30;99.90;;;;;;5050063;28;20153;-77
2021/12/21 03:29:05;;;;;;;26.05;13.65;;;-3.40;99.90;;;;;;5050178;28;20092;-77
2021/12/21 03:31:31;;;;;;;18.58;9.98;;;-3.40;99.90;;;;;;5050350;28;20021;-77
2021/12/21 03:33:56;;;;;;;22.80;12.82;;;-3.40;99.90;;;;;;5049089;28;20375;-77
2021/12/21 03:36:22;;;;;;;18.98;10.68;;;-3.40;99.90;;;;;;5049004;28;20035;-76
2021/12/21 03:39:00;;;;;;;24.77;13.27;;;-3.40;99.90;;;;;;5049045;28;20028;-76
2021/12/21 03:41:26;;;;;;;13.52;9.23;;;-3.40;99.90;;;;;;5050089;28;20021;-77
2021/12/21 03:43:52;;;;;;;22.58;11.38;;;-3.40;99.90;;;;;;5050259;28;20037;-76
2021/12/21 03:46:17;;;;;;;19.27;10.07;;;-3.30;99.90;;;;;;5048899;28;20800;-78
2021/12/21 03:48:48;;;;;;;30.83;14.35;;;-3.30;99.90;;;;;;5048819;28;20375;-77
2021/12/21 03:51:15;;;;;;;23.27;13.70;;;-3.30;99.90;;;;;;5050068;28;20536;-77
2021/12/21 03:53:42;;;;;;;21.00;9.75;;;-3.20;99.90;;;;;;5048777;28;20061;-77
2021/12/21 03:56:28;;;;;;;19.13;10.00;;;-3.20;99.90;;;;;;5048426;28;20025;-76
2021/12/21 03:58:54;;;;;;;15.70;9.27;;;-3.20;99.90;;;;;;5049892;27;20029;-76
2021/12/21 04:01:19;;;;;;;19.92;10.32;;;-3.20;99.90;;;;;;5049905;28;20028;-77
2021/12/21 04:03:46;;;;;;;19.20;9.90;;;-3.20;99.90;;;;;;5049746;28;20041;-76
2021/12/21 04:06:12;;;;;;;20.83;11.02;;;-3.20;99.90;;;;;;5048852;27;20045;-77
2021/12/21 04:08:37;;;;;;;25.02;13.00;;;-3.20;99.90;;;;;;5049704;28;20048;-77
2021/12/21 04:11:03;;;;;;;20.73;12.35;;;-3.20;99.90;;;;;;5048397;28;20115;-76
2021/12/21 04:13:30;;;;;;;21.13;12.13;;;-3.20;99.90;;;;;;5048579;28;20029;-76
2021/12/21 04:16:00;;;;;;;15.13;9.30;;;-3.20;99.90;;;;;;5049827;28;20033;-76
2021/12/21 04:18:25;;;;;;;19.88;10.23;;;-3.20;99.90;;;;;;5049755;28;20035;-76
2021/12/21 04:20:51;;;;;;;16.63;8.88;;;-3.20;99.90;;;;;;5047053;28;20104;-77
2021/12/21 04:23:18;;;;;;;14.80;8.73;;;-3.20;99.90;;;;;;5036657;28;20032;-77
2021/12/21 04:25:44;;;;;;;18.25;10.45;;;-3.20;99.90;;;;;;5048179;28;20501;-76
2021/12/21 04:28:11;;;;;;;18.60;10.68;;;-3.20;99.90;;;;;;5045461;28;20112;-77
2021/12/21 04:30:36;;;;;;;13.25;9.73;;;-3.20;99.90;;;;;;5033322;28;20045;-76
2021/12/21 04:33:02;;;;;;;14.52;9.23;;;-3.20;99.90;;;;;;5031949;28;20060;-76
2021/12/21 04:35:28;;;;;;;16.90;9.82;;;-3.20;99.90;;;;;;5033007;28;20026;-76
2021/12/21 04:37:58;;;;;;;21.58;10.02;;;-3.20;99.90;;;;;;5033146;28;20131;-77
2021/12/21 04:40:38;;;;;;;12.38;8.05;;;-3.20;99.90;;;;;;5031905;28;20052;-76
2021/12/21 04:43:04;;;;;;;16.08;8.40;;;-3.20;99.90;;;;;;5031852;28;20042;-76
2021/12/21 04:45:30;;;;;;;14.80;8.68;;;-3.20;99.90;;;;;;5031718;28;20360;-76
2021/12/21 04:47:55;;;;;;;13.65;8.93;;;-3.20;99.90;;;;;;5031675;28;20033;-76
2021/12/21 04:50:21;;;;;;;17.15;8.98;;;-3.10;99.90;;;;;;5031680;28;20138;-76
2021/12/21 04:52:47;;;;;;;16.85;10.68;;;-3.10;99.90;;;;;;5032978;28;20507;-77
2021/12/21 04:55:12;;;;;;;17.95;10.30;;;-3.10;99.90;;;;;;5031531;28;20420;-76
2021/12/21 04:57:38;;;;;;;99.53;42.30;;;-3.10;99.90;;;;;;5032981;28;20025;-77
2021/12/21 05:00:05;;;;;;;143.13;59.33;;;-3.10;99.90;;;;;;5031708;28;20037;-76
2021/12/21 05:02:31;;;;;;;91.82;36.13;;;-3.10;99.90;;;;;;5031314;28;20030;-77
2021/12/21 05:04:57;;;;;;;74.00;28.25;;;-3.20;99.90;;;;;;5033732;28;20022;-76
2021/12/21 05:07:25;;;;;;;108.00;48.88;;;-3.20;99.90;;;;;;5033071;28;20025;-76
2021/12/21 05:09:56;;;;;;;237.77;118.18;;;-3.20;99.90;;;;;;5032537;28;20021;-77
2021/12/21 05:12:22;;;;;;;187.10;98.03;;;-3.20;99.90;;;;;;5031379;28;20034;-76
2021/12/21 05:14:48;;;;;;;520.13;236.60;;;-3.20;99.90;;;;;;5032613;28;20379;-76
2021/12/21 05:17:13;;;;;;;274.02;114.53;;;-3.20;99.90;;;;;;5031202;28;20022;-76
2021/12/21 05:19:39;;;;;;;105.38;46.35;;;-3.20;99.90;;;;;;5044034;27;20482;-77
2021/12/21 05:22:05;;;;;;;74.53;34.85;;;-3.20;99.90;;;;;;5052588;27;20044;-76
2021/12/21 05:24:31;;;;;;;71.93;30.77;;;-3.10;99.90;;;;;;5052345;27;20060;-76
2021/12/21 05:26:56;;;;;;;144.48;52.53;;;-3.20;99.90;;;;;;5054047;27;20489;-76
2021/12/21 05:29:23;;;;;;;100.95;38.00;;;-3.20;99.90;;;;;;5053252;27;20059;-76
2021/12/21 05:31:49;;;;;;;429.25;137.18;;;-3.30;99.90;;;;;;5052644;27;20017;-76
2021/12/21 05:34:15;;;;;;;119.15;43.25;;;-3.30;99.90;;;;;;5052315;27;20032;-76
2021/12/21 05:36:40;;;;;;;98.15;37.33;;;-3.30;99.90;;;;;;5050815;28;20474;-76
2021/12/21 05:39:15;;;;;;;634.70;248.05;;;-3.30;99.90;;;;;;5050416;28;20071;-76
2021/12/21 05:41:51;;;;;;;104.90;38.60;;;-3.30;99.90;;;;;;5050889;28;20032;-76
2021/12/21 05:44:19;;;;;;;196.73;82.85;;;-3.30;99.90;;;;;;5052170;28;20125;-76
2021/12/21 05:46:46;;;;;;;35.42;17.15;;;-3.40;99.90;;;;;;5050737;28;20036;-77
2021/12/21 05:49:11;;;;;;;22.30;11.93;;;-3.40;99.90;;;;;;5050566;28;20053;-76
2021/12/21 05:51:37;;;;;;;32.22;16.58;;;-3.40;99.90;;;;;;5052006;28;20105;-76
2021/12/21 05:54:03;;;;;;;23.02;12.95;;;-3.40;99.90;;;;;;5051834;28;20029;-76
2021/12/21 05:56:28;;;;;;;115.15;47.22;;;-3.40;99.90;;;;;;5051650;28;20463;-76
2021/12/21 05:58:54;;;;;;;26.52;15.32;;;-3.40;99.90;;;;;;5050585;28;20043;-76
2021/12/21 06:01:20;;;;;;;92.75;44.67;;;-3.50;99.90;;;;;;5051591;28;20055;-76
2021/12/21 06:03:45;;;;;;;68.18;28.90;;;-3.40;99.90;;;;;;5050455;28;20041;-76
2021/12/21 06:06:14;;;;;;;93.28;37.88;;;-3.40;99.90;;;;;;5050369;28;20065;-76
2021/12/21 06:08:42;;;;;;;262.95;103.60;;;-3.40;99.90;;;;;;5050199;28;20539;-76
2021/12/21 06:11:08;;;;;;;110.55;47.88;;;-3.40;99.90;;;;;;5050263;28;20070;-77
2021/12/21 06:26:42;;;;;;;39.05;22.70;;;-3.50;99.90;;;;;;5155456;27;20105;-76
2021/12/21 06:29:08;;;;;;;19.90;10.10;;;-3.50;99.90;;;;;;5154595;27;20015;-76
2021/12/21 06:31:34;;;;;;;36.92;21.38;;;-3.60;99.90;;;;;;5155711;27;20113;-75
2021/12/21 06:34:00;;;;;;;18.10;11.13;;;-3.50;99.90;;;;;;5156015;27;20061;-75
2021/12/21 06:36:26;;;;;;;21.60;11.23;;;-3.50;99.90;;;;;;5155061;27;20422;-75
2021/12/21 06:38:53;;;;;;;26.13;14.70;;;-3.50;99.90;;;;;;5155214;27;20112;-74
2021/12/21 06:41:20;;;;;;;15.02;9.40;;;-3.60;99.90;;;;;;5049556;28;20366;-74
2021/12/21 06:43:46;;;;;;;21.15;11.35;;;-3.60;99.90;;;;;;5047990;28;20052;-74
2021/12/21 06:46:31;;;;;;;22.95;12.50;;;-3.60;99.90;;;;;;5049935;27;20056;-73
2021/12/21 06:51:48;;;;;;;54.83;27.85;;;-3.50;99.90;;;;;;5047357;28;20121;-74
2021/12/21 06:54:14;;;;;;;76.65;37.70;;;-3.50;99.90;;;;;;5071352;27;20044;-73
2021/12/21 06:56:40;;;;;;;37.15;20.02;;;-3.50;99.90;;;;;;5051112;28;20535;-74
2021/12/21 06:59:05;;;;;;;35.58;19.50;;;-3.40;99.90;;;;;;5048866;28;20021;-73
2021/12/21 07:01:32;;;;;;;32.38;16.63;;;-3.50;99.90;;;;;;5048708;28;20057;-75
2021/12/21 07:03:58;;;;;;;47.60;25.98;;;-3.40;99.90;;;;;;5048991;28;20049;-74
2021/12/21 07:06:25;;;;;;;30.58;17.42;;;-3.40;99.90;;;;;;5051581;27;20017;-73
2021/12/21 07:09:05;;;;;;;40.28;21.85;;;-3.40;99.90;;;;;;5048684;28;20025;-74
2021/12/21 07:19:30;;;;;;;17.23;10.23;;;-3.40;99.90;;;;;;5047319;28;20121;-76
2021/12/21 07:21:56;;;;;;;22.58;12.43;;;-3.40;99.90;;;;;;5048388;28;20486;-76
2021/12/21 07:24:23;;;;;;;26.48;14.57;;;-3.40;99.90;;;;;;5122368;27;20084;-76
2021/12/21 07:26:48;;;;;;;21.17;12.88;;;-3.40;99.90;;;;;;5045204;28;20025;-75
2021/12/21 07:29:14;;;;;;;21.02;10.60;;;-3.40;99.90;;;;;;5046968;27;20427;-75
2021/12/21 07:31:40;;;;;;;18.63;10.70;;;-3.40;99.90;;;;;;5044513;28;20134;-75
2021/12/21 07:34:06;;;;;;;20.13;9.48;;;-3.30;99.90;;;;;;5047585;27;20455;-75
2021/12/21 07:36:32;;;;;;;15.68;10.50;;;-3.30;99.90;;;;;;5045673;27;20025;-76
2021/12/21 07:38:59;;;;;;;17.13;10.85;;;-3.30;99.90;;;;;;5044698;28;20040;-75
2021/12/21 07:41:25;;;;;;;16.05;9.43;;;-3.30;99.90;;;;;;5045057;28;20514;-76
2021/12/21 07:43:51;;;;;;;18.45;10.95;;;-3.30;99.90;;;;;;5046275;28;20041;-76
2021/12/21 07:46:16;;;;;;;16.13;10.38;;;-3.20;99.90;;;;;;5049165;28;20027;-75
2021/12/21 07:48:42;;;;;;;17.00;9.88;;;-3.20;99.90;;;;;;5066131;27;20423;-76
2021/12/21 07:51:09;;;;;;;17.98;9.23;;;-3.20;99.90;;;;;;5046893;28;20025;-74
2021/12/21 07:53:35;;;;;;;15.57;8.40;;;-3.20;99.90;;;;;;5048140;28;20079;-74
2021/12/21 07:56:02;;;;;;;14.63;8.98;;;-3.10;99.90;;;;;;5051096;28;20525;-74
2021/12/21 07:58:32;;;;;;;17.67;9.70;;;-3.10;99.90;;;;;;5086010;27;20383;-75
2021/12/21 08:00:59;;;;;;;20.50;9.32;;;-3.10;99.90;;;;;;5102856;27;20083;-75
2021/12/21 08:03:25;;;;;;;27.30;11.18;;;-3.10;99.90;;;;;;5052223;27;20041;-75
2021/12/21 08:05:54;;;;;;;13.98;8.07;;;-3.00;99.90;;;;;;5047474;28;20025;-75
2021/12/21 08:08:22;;;;;;;17.92;10.75;;;-3.00;99.90;;;;;;5045699;28;20435;-74
2021/12/21 08:10:55;;;;;;;22.15;10.07;;;-2.90;99.90;;;;;;5047657;28;20032;-74
2021/12/21 08:13:21;;;;;;;38.75;15.32;;;-2.90;99.90;;;;;;5069009;27;20067;-74
2021/12/21 08:15:47;;;;;;;45.28;18.42;;;-2.90;99.90;;;;;;5043451;28;20032;-75
2021/12/21 08:18:13;;;;;;;30.52;14.10;;;-2.80;99.90;;;;;;5103092;28;20023;-75
2021/12/21 08:20:39;;;;;;;24.23;11.75;;;-2.70;99.90;;;;;;5086391;28;20036;-75
2021/12/21 08:23:06;;;;;;;25.55;11.02;;;-2.80;99.90;;;;;;5051091;28;20025;-75
2021/12/21 08:25:36;;;;;;;18.50;10.27;;;-2.80;99.90;;;;;;5044448;28;20029;-75
2021/12/21 08:28:03;;;;;;;19.42;10.95;;;-2.70;99.90;;;;;;5048046;28;20017;-76
2021/12/21 08:30:29;;;;;;;22.95;10.90;;;-2.70;99.90;;;;;;5103606;28;20032;-75
2021/12/21 08:32:57;;;;;;;24.30;13.02;;;-2.70;99.90;;;;;;5047564;28;20021;-75
2021/12/21 08:35:24;;;;;;;21.45;10.65;;;-2.70;99.90;;;;;;5085281;27;20072;-75
2021/12/21 08:37:52;;;;;;;45.05;19.45;;;-2.60;99.90;;;;;;5047985;27;20013;-75
2021/12/21 08:40:22;;;;;;;24.45;13.65;;;-2.50;99.90;;;;;;5076956;27;20124;-75
2021/12/21 08:42:50;;;;;;;17.70;10.73;;;-2.50;99.90;;;;;;5048663;28;20044;-75
2021/12/21 08:45:16;;;;;;;22.92;11.10;;;-2.40;99.90;;;;;;5045867;28;20402;-75
2021/12/21 08:47:42;;;;;;;15.57;10.02;;;-2.40;99.90;;;;;;5054185;27;20044;-75
2021/12/21 08:50:11;;;;;;;15.55;7.95;;;-2.50;99.90;;;;;;5065591;27;20067;-75
2021/12/21 08:52:37;;;;;;;16.45;9.48;;;-2.70;99.90;;;;;;5060305;27;20424;-75
2021/12/21 08:55:05;;;;;;;15.93;7.60;;;-2.70;99.90;;;;;;5069486;27;20400;-75
2021/12/21 08:57:31;;;;;;;8.80;5.47;;;-2.90;99.90;;;;;;5046078;28;20062;-75
2021/12/21 08:59:56;;;;;;;10.27;5.38;;;-2.90;99.20;;;;;;5045326;28;20056;-75
2021/12/21 09:02:22;;;;;;;14.23;8.82;;;-3.10;97.10;;;;;;5052703;28;20044;-75
2021/12/21 09:04:48;;;;;;;13.02;7.40;;;-3.00;99.90;;;;;;5047363;28;20025;-75
2021/12/21 09:07:13;;;;;;;15.13;8.23;;;-2.90;99.90;;;;;;5049021;27;20029;-75
2021/12/21 09:09:39;;;;;;;16.58;7.47;;;-3.10;99.90;;;;;;5047513;28;20057;-75
2021/12/21 09:12:05;;;;;;;11.45;6.50;;;-3.00;99.90;;;;;;5046500;28;20169;-75
2021/12/21 09:14:32;;;;;;;9.40;5.80;;;-2.90;99.90;;;;;;5058370;27;20025;-76
2021/12/21 09:16:59;;;;;;;10.70;5.28;;;-2.90;99.90;;;;;;5066794;27;20017;-76
2021/12/21 09:19:25;;;;;;;9.27;5.53;;;-2.90;97.80;;;;;;5109225;27;20029;-76
2021/12/21 09:21:50;;;;;;;13.93;6.25;;;-2.90;96.90;;;;;;5089186;27;20019;-75
2021/12/21 09:24:17;;;;;;;11.52;5.38;;;-2.80;96.40;;;;;;5124489;27;20035;-76
2021/12/21 09:26:42;;;;;;;8.55;4.72;;;-2.70;95.30;;;;;;5108847;27;20023;-75
2021/12/21 09:29:08;;;;;;;8.25;5.78;;;-2.70;93.40;;;;;;5068765;27;20032;-76
2021/12/21 09:31:35;;;;;;;6.30;4.43;;;-2.70;92.80;;;;;;5053203;27;20025;-76
2021/12/21 09:34:00;;;;;;;8.05;5.82;;;-2.80;91.10;;;;;;5051595;27;20140;-75
2021/12/21 09:36:28;;;;;;;11.15;6.25;;;-2.70;93.60;;;;;;5041474;27;20030;-78
2021/12/21 09:38:54;;;;;;;12.15;6.40;;;-2.60;93.60;;;;;;5039729;27;20116;-75
2021/12/21 09:41:20;;;;;;;7.90;5.63;;;-2.60;89.50;;;;;;5057021;27;20025;-74
2021/12/21 09:43:45;;;;;;;16.13;8.98;;;-2.70;86.60;;;;;;5041108;27;20032;-75
2021/12/21 09:46:12;;;;;;;11.93;6.45;;;-2.70;88.90;;;;;;5042556;27;20023;-75
2021/12/21 09:48:38;;;;;;;8.30;4.45;;;-2.90;89.70;;;;;;5041725;27;20018;-75
2021/12/21 09:51:04;;;;;;;8.07;5.18;;;-2.80;90.10;;;;;;5038818;27;20017;-75
2021/12/21 09:53:33;;;;;;;6.90;5.00;;;-2.90;89.20;;;;;;5038990;27;20478;-74
2021/12/21 09:56:04;;;;;;;9.60;5.03;;;-2.80;87.80;;;;;;5040940;27;20113;-74
2021/12/21 09:58:32;;;;;;;9.73;5.75;;;-2.60;87.20;;;;;;5038307;27;20106;-74
2021/12/21 10:00:58;;;;;;;9.90;5.88;;;-2.40;87.50;;;;;;5047811;27;20439;-76
2021/12/21 10:03:23;;;;;;;5.85;3.92;;;-2.40;86.30;;;;;;5037579;27;20112;-77
2021/12/21 10:05:49;;;;;;;5.15;4.63;;;-2.60;84.30;;;;;;5035095;28;20148;-78
2021/12/21 10:08:19;;;;;;;5.07;4.07;;;-2.70;84.90;;;;;;5039190;28;20017;-78
2021/12/21 10:10:50;;;;;;;7.78;5.43;;;-2.80;82.30;;;;;;5037464;28;20017;-78
2021/12/21 10:13:24;;;;;;;6.07;4.57;;;-2.70;83.00;;;;;;5039013;28;20024;-78
2021/12/21 10:15:56;;;;;;;5.75;4.18;;;-2.80;81.40;;;;;;5035974;28;20485;-77
2021/12/21 10:18:51;;;;;;;8.77;4.50;;;-2.70;82.70;;;;;;5032618;28;20415;-77
2021/12/21 10:21:17;;;;;;;8.82;5.95;;;-2.70;82.90;;;;;;5047412;28;20030;-78
2021/12/21 10:23:49;;;;;;;12.93;5.57;;;-2.60;81.90;;;;;;5040197;28;20033;-77
2021/12/21 10:26:23;;;;;;;9.63;5.65;;;-2.50;82.60;;;;;;5042408;28;20021;-78
2021/12/21 10:28:51;;;;;;;10.40;5.60;;;-2.40;83.50;;;;;;5033318;28;20033;-79
2021/12/21 10:31:30;;;;;;;10.13;5.82;;;-2.30;83.10;;;;;;5035110;28;20017;-79
2021/12/21 10:33:59;;;;;;;9.50;5.72;;;-2.30;81.60;;;;;;5041308;28;20025;-79
2021/12/21 10:36:26;;;;;;;7.75;4.40;;;-2.30;80.50;;;;;;5035801;28;20081;-78
2021/12/21 10:39:00;;;;;;;6.95;4.15;;;-2.30;78.10;;;;;;5035481;28;20025;-77
2021/12/21 10:41:28;;;;;;;5.57;4.25;;;-2.30;75.20;;;;;;5032906;28;20009;-78
2021/12/21 10:43:59;;;;;;;4.78;3.58;;;-2.30;73.10;;;;;;5030260;28;20040;-79
2021/12/21 10:46:28;;;;;;;4.03;3.08;;;-2.10;71.90;;;;;;5033110;28;20191;-79
2021/12/21 10:49:08;;;;;;;6.32;4.28;;;-2.00;70.60;;;;;;5036606;28;20027;-79
2021/12/21 10:51:34;;;;;;;11.00;3.90;;;-1.80;69.60;;;;;;5030751;28;20026;-80
2021/12/21 10:54:00;;;;;;;6.95;3.78;;;-1.50;70.10;;;;;;5031997;28;20029;-80
2021/12/21 10:56:26;;;;;;;5.28;3.78;;;-1.50;68.50;;;;;;5032707;28;20029;-80
2021/12/21 10:58:52;;;;;;;8.60;4.10;;;-1.70;66.40;;;;;;5032409;28;20071;-81
2021/12/21 11:01:25;;;;;;;15.25;11.52;;;-1.80;64.90;;;;;;5035710;28;20144;-79
2021/12/21 11:03:55;;;;;;;7.72;4.90;;;-1.80;65.80;;;;;;5034330;28;20440;-79
2021/12/21 11:06:28;;;;;;;5.82;4.60;;;-1.90;65.20;;;;;;5047174;28;20076;-79
2021/12/21 11:08:55;;;;;;;6.78;5.05;;;-1.90;67.70;;;;;;5041823;28;20032;-78
2021/12/21 11:11:27;;;;;;;6.30;4.75;;;-1.90;71.80;;;;;;5030850;28;20050;-79
2021/12/21 11:14:09;;;;;;;8.20;4.37;;;-1.90;72.80;;;;;;5043599;27;20041;-78
2021/12/21 11:16:42;;;;;;;13.32;5.90;;;-1.90;73.00;;;;;;5028618;28;20386;-78
2021/12/21 11:19:08;;;;;;;;;;;-1.80;72.70;;;;;;5029379;28;20025;-77
2021/12/21 11:21:34;;;;;;;16.60;9.07;;;-2.00;65.70;;;;;;5050009;27;20280;-78
2021/12/21 11:24:03;;;;;;;22.08;9.98;;;-2.00;64.80;;;;;;5091541;27;20029;-77
2021/12/21 11:26:30;;;;;;;5.82;3.50;;;-1.80;66.40;;;;;;5104681;27;20018;-77
2021/12/21 11:29:00;;;;;;;6.28;4.15;;;-1.80;65.80;;;;;;5086748;27;20056;-78
2021/12/21 11:31:26;;;;;;;8.43;5.10;;;-1.80;65.60;;;;;;5094904;27;20013;-77
2021/12/21 11:33:57;;;;;;;12.95;5.20;;;-1.70;66.70;;;;;;5090481;27;20041;-78
2021/12/21 11:39:08;;;;;;;7.95;5.43;;;-1.50;67.30;;;;;;5058182;27;20040;-78
2021/12/21 11:41:36;;;;;;;8.18;4.50;;;-1.60;67.50;;;;;;5064639;27;20064;-78
2021/12/21 11:44:16;;;;;;;6.68;4.05;;;-1.60;66.80;;;;;;5033913;28;20173;-77
2021/12/21 11:46:54;;;;;;;9.15;6.00;;;-1.90;66.20;;;;;;5035675;27;20025;-78
2021/12/21 11:49:34;;;;;;;10.00;7.07;;;-1.90;66.50;;;;;;5036700;27;20070;-78
2021/12/21 11:52:07;;;;;;;7.05;4.78;;;-2.00;66.40;;;;;;5036880;27;20090;-78
2021/12/21 11:54:52;;;;;;;9.10;5.15;;;-2.20;65.80;;;;;;5034393;27;20467;-77
2021/12/21 11:57:20;;;;;;;32.55;13.63;;;-2.20;66.20;;;;;;5030673;28;20114;-77
2021/12/21 11:59:49;;;;;;;17.05;8.63;;;-2.20;66.30;;;;;;5031887;28;20036;-77
2021/12/21 12:02:25;;;;;;;10.95;6.38;;;-2.10;65.90;;;;;;5034492;27;20022;-77
2021/12/21 12:04:56;;;;;;;11.38;6.18;;;-2.10;66.80;;;;;;5031744;27;20060;-77
2021/12/21 12:07:21;;;;;;;23.35;11.50;;;-2.10;67.30;;;;;;5034364;27;20468;-77
2021/12/21 12:10:01;;;;;;;16.45;8.25;;;-2.00;67.10;;;;;;5030671;27;20025;-77
2021/12/21 12:12:28;;;;;;;15.18;5.30;;;-2.10;66.30;;;;;;5034588;27;20037;-77
2021/12/21 12:15:00;;;;;;;13.45;7.07;;;-2.10;66.80;;;;;;5065288;27;20024;-77
2021/12/21 12:17:30;;;;;;;20.90;9.52;;;-2.10;66.50;;;;;;5030965;27;20109;-77
2021/12/21 12:20:02;;;;;;;8.60;6.75;;;-2.10;66.60;;;;;;5034817;28;20014;-77
2021/12/21 12:22:40;;;;;;;36.05;22.75;;;-2.00;65.60;;;;;;5030550;27;20021;-77
2021/12/21 12:25:12;;;;;;;50.33;26.85;;;-2.00;64.80;;;;;;5038362;28;20024;-78
2021/12/21 12:27:47;;;;;;;47.33;27.42;;;-1.90;65.20;;;;;;5034189;27;20087;-78
2021/12/21 12:30:16;;;;;;;55.83;31.75;;;-1.90;65.20;;;;;;5030950;28;20053;-78
2021/12/21 12:32:46;;;;;;;40.65;20.27;;;-1.80;64.60;;;;;;5029098;28;20086;-77
2021/12/21 12:35:16;;;;;;;179.13;74.78;;;-1.90;64.20;;;;;;5035527;28;20021;-77
2021/12/21 12:37:58;;;;;;;87.93;43.20;;;-2.00;64.70;;;;;;5083783;27;20079;-77
2021/12/21 12:40:31;;;;;;;400.92;152.40;;;-2.10;65.20;;;;;;5052341;27;20028;-77
2021/12/21 12:43:21;;;;;;;127.75;50.30;;;-2.10;66.30;;;;;;5027754;28;20498;-77
2021/12/21 12:45:53;;;;;;;127.88;55.05;;;-2.10;66.00;;;;;;5043315;27;20067;-76
2021/12/21 12:48:29;;;;;;;28.00;14.20;;;-2.10;66.00;;;;;;5047353;27;20056;-77
2021/12/21 12:50:57;;;;;;;80.63;43.97;;;-2.10;65.90;;;;;;5031711;28;20018;-77
2021/12/21 12:53:42;;;;;;;106.47;61.72;;;-2.10;66.30;;;;;;5043387;27;20398;-76
2021/12/21 12:56:10;;;;;;;38.90;22.90;;;-2.00;65.40;;;;;;5050836;27;20025;-78
2021/12/21 12:59:04;;;;;;;61.72;41.75;;;-2.00;65.80;;;;;;5063298;27;20020;-77
2021/12/21 13:01:32;;;;;;;17.40;13.10;;;-2.10;63.80;;;;;;5071618;28;20412;-77
2021/12/21 13:04:01;;;;;;;48.40;30.10;;;-2.10;61.20;;;;;;5068827;28;20032;-77
2021/12/21 13:06:33;;;;;;;39.90;27.52;;;-2.10;61.80;;;;;;5052214;28;20027;-77
2021/12/21 13:09:00;;;;;;;22.58;16.63;;;-2.10;61.50;;;;;;5052323;28;20025;-77
2021/12/21 13:11:28;;;;;;;6.13;4.38;;;-2.20;59.80;;;;;;5052650;28;20089;-77
2021/12/21 13:13:55;;;;;;;6.50;5.88;;;-2.20;59.00;;;;;;5052337;28;20025;-76
2021/12/21 13:16:26;;;;;;;11.13;9.27;;;-2.30;59.10;;;;;;5052481;28;20017;-77
2021/12/21 13:18:57;;;;;;;13.40;9.63;;;-2.30;59.60;;;;;;5051176;28;20025;-77
2021/12/21 13:21:26;;;;;;;16.15;8.10;;;-2.30;60.30;;;;;;5051111;28;20021;-76
2021/12/21 13:24:01;;;;;;;15.32;6.20;;;-2.30;59.40;;;;;;5052262;28;20033;-77
2021/12/21 13:26:58;;;;;;;53.95;26.90;;;-2.20;59.50;;;;;;5051972;28;20036;-77
2021/12/21 13:29:30;;;;;;;90.95;38.85;;;-2.20;59.70;;;;;;5032541;28;20033;-77
2021/12/21 13:31:59;;;;;;;39.80;16.52;;;-2.20;59.60;;;;;;5032667;28;20428;-77